sensor_id;sensor_type;location;lat;lon;timestamp;temperature;humidity
70826;SHT31;58446;41.490;22.098;2023-06-14T00:01:46;22.45;70.88
70826;SHT31;58446;41.490;22.098;2023-06-14T00:04:13;22.09;71.23
70826;SHT31;58446;41.490;22.098;2023-06-14T00:06:39;22.22;71.59
70826;SHT31;58446;41.490;22.098;2023-06-14T00:09:06;22.17;71.85
70826;SHT31;58446;41.490;22.098;2023-06-14T00:11:34;22.08;71.71
70826;SHT31;58446;41.490;22.098;2023-06-14T00:14:00;22.11;71.97
70826;SHT31;58446;41.490;22.098;2023-06-14T00:16:25;22.27;71.55
70826;SHT31;58446;41.490;22.098;2023-06-14T00:18:51;22.35;71.16
70826;SHT31;58446;41.490;22.098;2023-06-14T00:21:17;22.42;70.89
70826;SHT31;58446;41.490;22.098;2023-06-14T00:23:43;22.22;70.86
70826;SHT31;58446;41.490;22.098;2023-06-14T00:26:10;21.98;72.11
70826;SHT31;58446;41.490;22.098;2023-06-14T00:28:36;22.14;71.55
70826;SHT31;58446;41.490;22.098;2023-06-14T00:31:02;22.28;70.99
70826;SHT31;58446;41.490;22.098;2023-06-14T00:33:28;22.27;70.91
70826;SHT31;58446;41.490;22.098;2023-06-14T00:35:53;22.24;71.10
70826;SHT31;58446;41.490;22.098;2023-06-14T00:38:20;22.12;71.24
70826;SHT31;58446;41.490;22.098;2023-06-14T00:40:46;22.21;71.00
70826;SHT31;58446;41.490;22.098;2023-06-14T00:43:12;22.31;70.54
70826;SHT31;58446;41.490;22.098;2023-06-14T00:45:38;22.21;70.59
70826;SHT31;58446;41.490;22.098;2023-06-14T00:48:04;22.27;70.24
70826;SHT31;58446;41.490;22.098;2023-06-14T00:50:32;22.28;70.15
70826;SHT31;58446;41.490;22.098;2023-06-14T00:53:00;22.24;70.02
70826;SHT31;58446;41.490;22.098;2023-06-14T00:55:26;22.24;69.97
70826;SHT31;58446;41.490;22.098;2023-06-14T00:57:54;22.17;70.08
70826;SHT31;58446;41.490;22.098;2023-06-14T01:00:20;22.17;70.21
70826;SHT31;58446;41.490;22.098;2023-06-14T01:02:46;22.24;69.83
70826;SHT31;58446;41.490;22.098;2023-06-14T01:05:13;22.21;69.80
70826;SHT31;58446;41.490;22.098;2023-06-14T01:08:24;22.24;69.72
70826;SHT31;58446;41.490;22.098;2023-06-14T01:11:04;22.15;69.90
70826;SHT31;58446;41.490;22.098;2023-06-14T01:13:39;22.05;70.20
70826;SHT31;58446;41.490;22.098;2023-06-14T01:16:07;22.01;70.39
70826;SHT31;58446;41.490;22.098;2023-06-14T01:18:34;22.12;69.90
70826;SHT31;58446;41.490;22.098;2023-06-14T01:21:00;22.09;69.94
70826;SHT31;58446;41.490;22.098;2023-06-14T01:23:31;21.90;70.59
70826;SHT31;58446;41.490;22.098;2023-06-14T01:26:01;22.00;70.36
70826;SHT31;58446;41.490;22.098;2023-06-14T01:28:28;22.01;70.30
70826;SHT31;58446;41.490;22.098;2023-06-14T01:31:00;21.97;70.10
70826;SHT31;58446;41.490;22.098;2023-06-14T01:33:29;22.04;70.01
70826;SHT31;58446;41.490;22.098;2023-06-14T01:35:56;22.04;70.04
70826;SHT31;58446;41.490;22.098;2023-06-14T01:38:24;22.05;70.10
70826;SHT31;58446;41.490;22.098;2023-06-14T01:40:51;22.08;69.96
70826;SHT31;58446;41.490;22.098;2023-06-14T01:43:18;22.14;69.76
70826;SHT31;58446;41.490;22.098;2023-06-14T01:45:46;22.08;69.79
70826;SHT31;58446;41.490;22.098;2023-06-14T01:48:13;22.07;69.84
70826;SHT31;58446;41.490;22.098;2023-06-14T01:50:39;22.07;69.91
70826;SHT31;58446;41.490;22.098;2023-06-14T01:53:08;22.05;69.94
70826;SHT31;58446;41.490;22.098;2023-06-14T01:55:34;21.98;70.06
70826;SHT31;58446;41.490;22.098;2023-06-14T01:58:03;21.91;70.25
70826;SHT31;58446;41.490;22.098;2023-06-14T02:00:29;21.71;70.73
70826;SHT31;58446;41.490;22.098;2023-06-14T02:02:55;21.77;70.66
70826;SHT31;58446;41.490;22.098;2023-06-14T02:05:21;21.80;70.61
70826;SHT31;58446;41.490;22.098;2023-06-14T02:07:47;21.88;70.43
70826;SHT31;58446;41.490;22.098;2023-06-14T02:10:13;21.86;70.45
70826;SHT31;58446;41.490;22.098;2023-06-14T02:12:39;21.94;70.27
70826;SHT31;58446;41.490;22.098;2023-06-14T02:15:05;21.88;70.35
70826;SHT31;58446;41.490;22.098;2023-06-14T02:17:32;21.83;70.54
70826;SHT31;58446;41.490;22.098;2023-06-14T02:19:58;21.91;70.33
70826;SHT31;58446;41.490;22.098;2023-06-14T02:22:24;21.78;70.65
70826;SHT31;58446;41.490;22.098;2023-06-14T02:24:50;21.86;70.49
70826;SHT31;58446;41.490;22.098;2023-06-14T02:27:16;21.83;70.54
70826;SHT31;58446;41.490;22.098;2023-06-14T02:29:42;21.69;71.01
70826;SHT31;58446;41.490;22.098;2023-06-14T02:32:08;21.67;71.17
70826;SHT31;58446;41.490;22.098;2023-06-14T02:34:34;21.73;71.00
70826;SHT31;58446;41.490;22.098;2023-06-14T02:37:01;21.77;70.93
70826;SHT31;58446;41.490;22.098;2023-06-14T02:39:29;21.76;71.00
70826;SHT31;58446;41.490;22.098;2023-06-14T02:41:54;21.70;71.17
70826;SHT31;58446;41.490;22.098;2023-06-14T02:44:24;21.77;71.13
70826;SHT31;58446;41.490;22.098;2023-06-14T02:46:52;21.78;71.18
70826;SHT31;58446;41.490;22.098;2023-06-14T02:49:18;21.77;71.31
70826;SHT31;58446;41.490;22.098;2023-06-14T02:51:43;21.77;71.45
70826;SHT31;58446;41.490;22.098;2023-06-14T02:54:09;21.69;71.58
70826;SHT31;58446;41.490;22.098;2023-06-14T02:56:36;21.63;71.89
70826;SHT31;58446;41.490;22.098;2023-06-14T02:59:02;21.51;72.25
70826;SHT31;58446;41.490;22.098;2023-06-14T03:01:28;21.43;72.74
70826;SHT31;58446;41.490;22.098;2023-06-14T03:04:02;21.47;72.52
70826;SHT31;58446;41.490;22.098;2023-06-14T03:06:29;21.51;72.53
70826;SHT31;58446;41.490;22.098;2023-06-14T03:08:59;21.30;73.28
70826;SHT31;58446;41.490;22.098;2023-06-14T03:11:28;21.22;73.73
70826;SHT31;58446;41.490;22.098;2023-06-14T03:13:54;20.94;74.68
70826;SHT31;58446;41.490;22.098;2023-06-14T03:16:21;20.88;74.48
70826;SHT31;58446;41.490;22.098;2023-06-14T03:18:50;20.74;74.90
70826;SHT31;58446;41.490;22.098;2023-06-14T03:21:17;20.95;74.46
70826;SHT31;58446;41.490;22.098;2023-06-14T03:23:43;21.18;73.73
70826;SHT31;58446;41.490;22.098;2023-06-14T03:26:10;21.32;73.25
70826;SHT31;58446;41.490;22.098;2023-06-14T03:28:55;21.40;72.96
70826;SHT31;58446;41.490;22.098;2023-06-14T03:31:21;21.39;73.12
70826;SHT31;58446;41.490;22.098;2023-06-14T03:33:47;21.50;72.63
70826;SHT31;58446;41.490;22.098;2023-06-14T03:36:14;21.59;72.41
70826;SHT31;58446;41.490;22.098;2023-06-14T03:38:44;21.63;72.38
70826;SHT31;58446;41.490;22.098;2023-06-14T03:41:10;21.60;72.45
70826;SHT31;58446;41.490;22.098;2023-06-14T03:43:36;21.59;72.50
70826;SHT31;58446;41.490;22.098;2023-06-14T03:46:02;21.56;72.59
70826;SHT31;58446;41.490;22.098;2023-06-14T03:48:27;21.54;72.65
70826;SHT31;58446;41.490;22.098;2023-06-14T03:50:53;21.54;72.74
70826;SHT31;58446;41.490;22.098;2023-06-14T03:53:20;21.59;72.69
70826;SHT31;58446;41.490;22.098;2023-06-14T03:55:49;21.61;72.69
70826;SHT31;58446;41.490;22.098;2023-06-14T03:58:15;21.54;72.96
70826;SHT31;58446;41.490;22.098;2023-06-14T04:00:41;21.51;73.04
70826;SHT31;58446;41.490;22.098;2023-06-14T04:03:07;21.63;72.77
70826;SHT31;58446;41.490;22.098;2023-06-14T04:05:32;21.64;72.58
70826;SHT31;58446;41.490;22.098;2023-06-14T04:07:58;21.66;72.49
70826;SHT31;58446;41.490;22.098;2023-06-14T04:10:26;21.59;72.84
70826;SHT31;58446;41.490;22.098;2023-06-14T04:12:52;21.51;73.08
70826;SHT31;58446;41.490;22.098;2023-06-14T04:15:18;21.53;73.02
70826;SHT31;58446;41.490;22.098;2023-06-14T04:17:44;21.66;72.75
70826;SHT31;58446;41.490;22.098;2023-06-14T04:20:10;21.60;73.01
70826;SHT31;58446;41.490;22.098;2023-06-14T04:22:36;21.57;73.19
70826;SHT31;58446;41.490;22.098;2023-06-14T04:25:02;21.66;72.92
70826;SHT31;58446;41.490;22.098;2023-06-14T04:27:28;21.73;72.74
70826;SHT31;58446;41.490;22.098;2023-06-14T04:29:56;21.30;73.98
70826;SHT31;58446;41.490;22.098;2023-06-14T04:32:24;20.92;75.50
70826;SHT31;58446;41.490;22.098;2023-06-14T04:34:54;21.00;75.37
70826;SHT31;58446;41.490;22.098;2023-06-14T04:37:22;21.28;74.39
70826;SHT31;58446;41.490;22.098;2023-06-14T04:39:50;21.46;73.92
70826;SHT31;58446;41.490;22.098;2023-06-14T04:42:17;21.40;74.42
70826;SHT31;58446;41.490;22.098;2023-06-14T04:44:45;21.46;74.02
70826;SHT31;58446;41.490;22.098;2023-06-14T04:47:13;21.54;73.84
70826;SHT31;58446;41.490;22.098;2023-06-14T04:49:41;21.40;74.05
70826;SHT31;58446;41.490;22.098;2023-06-14T04:52:07;21.56;73.41
70826;SHT31;58446;41.490;22.098;2023-06-14T04:54:35;21.51;73.67
70826;SHT31;58446;41.490;22.098;2023-06-14T04:57:04;21.54;73.49
70826;SHT31;58446;41.490;22.098;2023-06-14T04:59:31;21.57;73.96
70826;SHT31;58446;41.490;22.098;2023-06-14T05:01:58;21.56;73.57
70826;SHT31;58446;41.490;22.098;2023-06-14T05:04:25;21.57;73.27
70826;SHT31;58446;41.490;22.098;2023-06-14T05:06:53;21.67;72.89
70826;SHT31;58446;41.490;22.098;2023-06-14T05:09:22;21.77;73.00
70826;SHT31;58446;41.490;22.098;2023-06-14T05:11:48;21.64;73.95
70826;SHT31;58446;41.490;22.098;2023-06-14T05:14:15;21.70;73.23
70826;SHT31;58446;41.490;22.098;2023-06-14T05:16:41;21.73;72.83
70826;SHT31;58446;41.490;22.098;2023-06-14T05:19:08;21.77;73.42
70826;SHT31;58446;41.490;22.098;2023-06-14T05:21:36;21.83;72.62
70826;SHT31;58446;41.490;22.098;2023-06-14T05:24:02;22.05;71.67
70826;SHT31;58446;41.490;22.098;2023-06-14T05:26:28;22.22;70.75
70826;SHT31;58446;41.490;22.098;2023-06-14T05:28:56;22.21;70.96
70826;SHT31;58446;41.490;22.098;2023-06-14T05:31:23;22.19;70.75
70826;SHT31;58446;41.490;22.098;2023-06-14T05:33:49;22.17;70.62
70826;SHT31;58446;41.490;22.098;2023-06-14T05:36:15;22.11;70.48
70826;SHT31;58446;41.490;22.098;2023-06-14T05:38:41;22.29;70.25
70826;SHT31;58446;41.490;22.098;2023-06-14T05:41:07;22.28;70.58
70826;SHT31;58446;41.490;22.098;2023-06-14T05:43:32;22.27;70.31
70826;SHT31;58446;41.490;22.098;2023-06-14T05:45:58;22.34;69.98
70826;SHT31;58446;41.490;22.098;2023-06-14T05:48:24;22.24;70.14
70826;SHT31;58446;41.490;22.098;2023-06-14T05:50:50;22.14;70.23
70826;SHT31;58446;41.490;22.098;2023-06-14T05:53:16;22.29;69.60
70826;SHT31;58446;41.490;22.098;2023-06-14T05:55:42;22.38;69.25
70826;SHT31;58446;41.490;22.098;2023-06-14T05:58:07;22.41;69.14
70826;SHT31;58446;41.490;22.098;2023-06-14T06:00:33;22.37;69.52
70826;SHT31;58446;41.490;22.098;2023-06-14T06:02:59;22.28;69.70
70826;SHT31;58446;41.490;22.098;2023-06-14T06:05:26;22.41;69.25
70826;SHT31;58446;41.490;22.098;2023-06-14T06:07:52;22.18;69.72
70826;SHT31;58446;41.490;22.098;2023-06-14T06:10:17;22.11;70.48
70826;SHT31;58446;41.490;22.098;2023-06-14T06:12:43;22.38;69.35
70826;SHT31;58446;41.490;22.098;2023-06-14T06:15:09;22.38;69.37
70826;SHT31;58446;41.490;22.098;2023-06-14T06:17:39;22.37;68.97
70826;SHT31;58446;41.490;22.098;2023-06-14T06:20:05;22.31;69.08
70826;SHT31;58446;41.490;22.098;2023-06-14T06:22:36;22.39;68.96
70826;SHT31;58446;41.490;22.098;2023-06-14T06:25:02;22.45;68.80
70826;SHT31;58446;41.490;22.098;2023-06-14T06:27:28;22.49;68.62
70826;SHT31;58446;41.490;22.098;2023-06-14T06:29:54;22.49;68.60
70826;SHT31;58446;41.490;22.098;2023-06-14T06:32:19;22.53;68.24
70826;SHT31;58446;41.490;22.098;2023-06-14T06:34:45;22.68;67.79
70826;SHT31;58446;41.490;22.098;2023-06-14T06:37:13;22.66;68.17
70826;SHT31;58446;41.490;22.098;2023-06-14T06:39:39;22.68;68.32
70826;SHT31;58446;41.490;22.098;2023-06-14T06:42:05;22.73;67.94
70826;SHT31;58446;41.490;22.098;2023-06-14T06:44:32;22.82;67.58
70826;SHT31;58446;41.490;22.098;2023-06-14T06:46:58;22.72;69.18
70826;SHT31;58446;41.490;22.098;2023-06-14T06:49:24;22.79;68.44
70826;SHT31;58446;41.490;22.098;2023-06-14T06:52:08;22.90;67.37
70826;SHT31;58446;41.490;22.098;2023-06-14T06:54:34;22.96;67.74
70826;SHT31;58446;41.490;22.098;2023-06-14T06:57:00;22.99;68.24
70826;SHT31;58446;41.490;22.098;2023-06-14T06:59:27;23.03;67.34
70826;SHT31;58446;41.490;22.098;2023-06-14T07:01:52;23.03;67.30
70826;SHT31;58446;41.490;22.098;2023-06-14T07:04:19;22.97;67.54
70826;SHT31;58446;41.490;22.098;2023-06-14T07:06:46;23.00;68.90
70826;SHT31;58446;41.490;22.098;2023-06-14T07:09:12;22.95;69.63
70826;SHT31;58446;41.490;22.098;2023-06-14T07:11:40;23.06;67.84
70826;SHT31;58446;41.490;22.098;2023-06-14T07:14:06;23.14;66.83
70826;SHT31;58446;41.490;22.098;2023-06-14T07:16:32;23.07;68.26
70826;SHT31;58446;41.490;22.098;2023-06-14T07:18:58;23.06;68.59
70826;SHT31;58446;41.490;22.098;2023-06-14T07:21:24;23.02;68.54
70826;SHT31;58446;41.490;22.098;2023-06-14T07:23:53;23.07;67.85
70826;SHT31;58446;41.490;22.098;2023-06-14T07:26:19;23.09;67.27
70826;SHT31;58446;41.490;22.098;2023-06-14T07:28:46;23.14;67.62
70826;SHT31;58446;41.490;22.098;2023-06-14T07:31:13;23.17;67.12
70826;SHT31;58446;41.490;22.098;2023-06-14T07:33:39;23.23;67.91
70826;SHT31;58446;41.490;22.098;2023-06-14T07:36:05;23.16;68.48
70826;SHT31;58446;41.490;22.098;2023-06-14T07:38:31;23.27;67.27
70826;SHT31;58446;41.490;22.098;2023-06-14T07:40:57;23.34;66.98
70826;SHT31;58446;41.490;22.098;2023-06-14T07:43:22;23.34;67.37
70826;SHT31;58446;41.490;22.098;2023-06-14T07:45:48;23.31;67.18
70826;SHT31;58446;41.490;22.098;2023-06-14T07:48:14;23.36;66.85
70826;SHT31;58446;41.490;22.098;2023-06-14T07:50:40;23.33;66.95
70826;SHT31;58446;41.490;22.098;2023-06-14T07:53:06;23.27;68.18
70826;SHT31;58446;41.490;22.098;2023-06-14T07:55:32;23.26;68.93
70826;SHT31;58446;41.490;22.098;2023-06-14T07:57:58;23.33;67.25
70826;SHT31;58446;41.490;22.098;2023-06-14T08:00:24;23.34;67.12
70826;SHT31;58446;41.490;22.098;2023-06-14T08:02:50;23.47;67.22
70826;SHT31;58446;41.490;22.098;2023-06-14T08:05:17;23.53;66.55
70826;SHT31;58446;41.490;22.098;2023-06-14T08:07:45;23.47;67.03
70826;SHT31;58446;41.490;22.098;2023-06-14T08:10:11;23.47;66.19
70826;SHT31;58446;41.490;22.098;2023-06-14T08:12:36;23.40;65.89
70826;SHT31;58446;41.490;22.098;2023-06-14T08:15:02;23.41;66.69
70826;SHT31;58446;41.490;22.098;2023-06-14T08:17:28;23.46;66.31
70826;SHT31;58446;41.490;22.098;2023-06-14T08:19:54;23.48;65.74
70826;SHT31;58446;41.490;22.098;2023-06-14T08:22:23;23.48;65.36
70826;SHT31;58446;41.490;22.098;2023-06-14T08:24:50;23.44;65.30
70826;SHT31;58446;41.490;22.098;2023-06-14T08:27:15;23.58;66.23
70826;SHT31;58446;41.490;22.098;2023-06-14T08:29:41;23.64;65.13
70826;SHT31;58446;41.490;22.098;2023-06-14T08:32:07;23.74;66.50
70826;SHT31;58446;41.490;22.098;2023-06-14T08:34:34;23.97;64.88
70826;SHT31;58446;41.490;22.098;2023-06-14T08:36:59;24.09;64.42
70826;SHT31;58446;41.490;22.098;2023-06-14T08:39:25;24.13;63.49
70826;SHT31;58446;41.490;22.098;2023-06-14T08:41:52;24.20;64.22
70826;SHT31;58446;41.490;22.098;2023-06-14T08:44:18;24.36;63.27
70826;SHT31;58446;41.490;22.098;2023-06-14T08:46:45;24.33;62.90
70826;SHT31;58446;41.490;22.098;2023-06-14T08:49:16;24.32;63.36
70826;SHT31;58446;41.490;22.098;2023-06-14T08:51:43;24.41;63.94
70826;SHT31;58446;41.490;22.098;2023-06-14T08:54:11;24.41;62.21
70826;SHT31;58446;41.490;22.098;2023-06-14T08:56:40;24.44;63.33
70826;SHT31;58446;41.490;22.098;2023-06-14T08:59:07;24.57;63.07
70826;SHT31;58446;41.490;22.098;2023-06-14T09:01:36;24.60;62.78
70826;SHT31;58446;41.490;22.098;2023-06-14T09:04:03;24.66;64.34
70826;SHT31;58446;41.490;22.098;2023-06-14T09:06:31;24.76;62.66
70826;SHT31;58446;41.490;22.098;2023-06-14T09:08:57;24.88;64.29
70826;SHT31;58446;41.490;22.098;2023-06-14T09:11:23;24.94;61.27
70826;SHT31;58446;41.490;22.098;2023-06-14T09:13:49;25.03;61.53
70826;SHT31;58446;41.490;22.098;2023-06-14T09:16:16;25.03;61.23
70826;SHT31;58446;41.490;22.098;2023-06-14T09:18:44;24.83;61.53
70826;SHT31;58446;41.490;22.098;2023-06-14T09:21:11;24.80;61.97
70826;SHT31;58446;41.490;22.098;2023-06-14T09:23:42;24.78;62.48
70826;SHT31;58446;41.490;22.098;2023-06-14T09:26:12;24.81;62.01
70826;SHT31;58446;41.490;22.098;2023-06-14T09:28:45;24.80;61.97
70826;SHT31;58446;41.490;22.098;2023-06-14T09:31:17;24.74;63.31
70826;SHT31;58446;41.490;22.098;2023-06-14T09:33:44;24.78;61.22
70826;SHT31;58446;41.490;22.098;2023-06-14T09:36:24;24.92;61.87
70826;SHT31;58446;41.490;22.098;2023-06-14T09:38:59;24.90;60.75
70826;SHT31;58446;41.490;22.098;2023-06-14T09:41:36;25.01;61.84
70826;SHT31;58446;41.490;22.098;2023-06-14T09:44:09;25.18;61.47
70826;SHT31;58446;41.490;22.098;2023-06-14T09:46:36;25.24;62.27
70826;SHT31;58446;41.490;22.098;2023-06-14T09:49:04;25.11;61.30
70826;SHT31;58446;41.490;22.098;2023-06-14T09:51:30;25.07;61.93
70826;SHT31;58446;41.490;22.098;2023-06-14T09:54:02;25.06;60.61
70826;SHT31;58446;41.490;22.098;2023-06-14T09:56:35;25.06;61.00
70826;SHT31;58446;41.490;22.098;2023-06-14T09:59:04;25.01;60.73
70826;SHT31;58446;41.490;22.098;2023-06-14T10:01:31;25.17;61.87
70826;SHT31;58446;41.490;22.098;2023-06-14T10:04:06;25.41;61.18
70826;SHT31;58446;41.490;22.098;2023-06-14T10:06:36;25.53;59.79
70826;SHT31;58446;41.490;22.098;2023-06-14T10:09:04;25.49;60.49
70826;SHT31;58446;41.490;22.098;2023-06-14T10:11:35;25.55;60.37
70826;SHT31;58446;41.490;22.098;2023-06-14T10:14:02;25.61;60.48
70826;SHT31;58446;41.490;22.098;2023-06-14T10:16:39;25.76;61.42
70826;SHT31;58446;41.490;22.098;2023-06-14T10:19:53;25.92;60.64
70826;SHT31;58446;41.490;22.098;2023-06-14T10:22:14;26.01;58.79
70826;SHT31;58446;41.490;22.098;2023-06-14T10:24:43;26.09;58.76
70826;SHT31;58446;41.490;22.098;2023-06-14T10:27:13;26.16;59.81
70826;SHT31;58446;41.490;22.098;2023-06-14T10:32:24;26.31;57.36
70826;SHT31;58446;41.490;22.098;2023-06-14T10:35:01;26.33;57.96
70826;SHT31;58446;41.490;22.098;2023-06-14T10:37:27;26.34;58.67
70826;SHT31;58446;41.490;22.098;2023-06-14T10:39:53;26.23;57.97
70826;SHT31;58446;41.490;22.098;2023-06-14T10:42:19;26.26;58.74
70826;SHT31;58446;41.490;22.098;2023-06-14T10:44:45;26.26;59.16
70826;SHT31;58446;41.490;22.098;2023-06-14T10:47:26;26.18;58.15
70826;SHT31;58446;41.490;22.098;2023-06-14T10:52:28;26.12;58.78
70826;SHT31;58446;41.490;22.098;2023-06-14T10:55:16;26.17;59.03
70826;SHT31;58446;41.490;22.098;2023-06-14T10:57:45;26.16;59.17
70826;SHT31;58446;41.490;22.098;2023-06-14T11:00:14;26.20;58.18
70826;SHT31;58446;41.490;22.098;2023-06-14T11:02:46;26.18;58.22
70826;SHT31;58446;41.490;22.098;2023-06-14T11:05:23;26.28;58.74
70826;SHT31;58446;41.490;22.098;2023-06-14T11:08:18;26.38;59.60
70826;SHT31;58446;41.490;22.098;2023-06-14T11:10:47;26.48;57.80
70826;SHT31;58446;41.490;22.098;2023-06-14T11:13:13;26.49;57.78
70826;SHT31;58446;41.490;22.098;2023-06-14T11:15:44;26.40;57.76
70826;SHT31;58446;41.490;22.098;2023-06-14T11:18:14;26.28;57.35
70826;SHT31;58446;41.490;22.098;2023-06-14T11:20:42;26.26;59.60
70826;SHT31;58446;41.490;22.098;2023-06-14T11:23:08;26.28;59.33
70826;SHT31;58446;41.490;22.098;2023-06-14T11:25:34;26.36;59.69
70826;SHT31;58446;41.490;22.098;2023-06-14T11:28:00;26.37;59.54
70826;SHT31;58446;41.490;22.098;2023-06-14T11:30:26;26.34;57.77
70826;SHT31;58446;41.490;22.098;2023-06-14T11:32:52;26.48;58.35
70826;SHT31;58446;41.490;22.098;2023-06-14T11:35:23;26.49;55.80
70826;SHT31;58446;41.490;22.098;2023-06-14T11:37:53;26.57;58.36
70826;SHT31;58446;41.490;22.098;2023-06-14T11:40:19;26.71;60.39
70826;SHT31;58446;41.490;22.098;2023-06-14T11:42:45;26.69;57.01
70826;SHT31;58446;41.490;22.098;2023-06-14T11:45:11;26.65;55.23
70826;SHT31;58446;41.490;22.098;2023-06-14T11:47:40;26.82;54.95
70826;SHT31;58446;41.490;22.098;2023-06-14T11:50:08;26.98;57.38
70826;SHT31;58446;41.490;22.098;2023-06-14T11:52:35;26.92;57.87
70826;SHT31;58446;41.490;22.098;2023-06-14T11:55:02;26.89;57.85
70826;SHT31;58446;41.490;22.098;2023-06-14T11:57:34;26.81;57.74
70826;SHT31;58446;41.490;22.098;2023-06-14T12:00:03;26.78;58.14
70826;SHT31;58446;41.490;22.098;2023-06-14T12:02:32;26.85;57.18
70826;SHT31;58446;41.490;22.098;2023-06-14T12:05:05;26.92;55.82
70826;SHT31;58446;41.490;22.098;2023-06-14T12:07:37;26.89;55.82
70826;SHT31;58446;41.490;22.098;2023-06-14T12:10:08;26.99;56.18
70826;SHT31;58446;41.490;22.098;2023-06-14T12:12:39;27.08;54.26
70826;SHT31;58446;41.490;22.098;2023-06-14T12:15:07;26.98;53.30
70826;SHT31;58446;41.490;22.098;2023-06-14T12:17:34;26.94;52.81
70826;SHT31;58446;41.490;22.098;2023-06-14T12:20:06;26.95;54.79
70826;SHT31;58446;41.490;22.098;2023-06-14T12:22:46;26.99;55.21
70826;SHT31;58446;41.490;22.098;2023-06-14T12:25:32;27.09;55.29
70826;SHT31;58446;41.490;22.098;2023-06-14T12:28:06;27.09;55.45
70826;SHT31;58446;41.490;22.098;2023-06-14T12:30:33;27.12;54.48
70826;SHT31;58446;41.490;22.098;2023-06-14T12:32:59;27.32;54.93
70826;SHT31;58446;41.490;22.098;2023-06-14T12:35:26;27.45;54.80
70826;SHT31;58446;41.490;22.098;2023-06-14T12:37:52;27.50;52.90
70826;SHT31;58446;41.490;22.098;2023-06-14T12:40:18;27.51;52.11
70826;SHT31;58446;41.490;22.098;2023-06-14T12:42:45;27.51;52.35
70826;SHT31;58446;41.490;22.098;2023-06-14T12:45:12;27.51;50.13
70826;SHT31;58446;41.490;22.098;2023-06-14T12:47:38;27.68;52.49
70826;SHT31;58446;41.490;22.098;2023-06-14T12:50:05;27.80;51.03
70826;SHT31;58446;41.490;22.098;2023-06-14T12:52:31;27.88;51.78
70826;SHT31;58446;41.490;22.098;2023-06-14T12:55:04;27.87;53.16
70826;SHT31;58446;41.490;22.098;2023-06-14T12:57:30;27.74;52.56
70826;SHT31;58446;41.490;22.098;2023-06-14T12:59:56;27.70;52.96
70826;SHT31;58446;41.490;22.098;2023-06-14T13:02:22;27.71;51.97
70826;SHT31;58446;41.490;22.098;2023-06-14T13:04:50;27.71;53.13
70826;SHT31;58446;41.490;22.098;2023-06-14T13:07:17;27.74;51.33
70826;SHT31;58446;41.490;22.098;2023-06-14T13:09:44;27.63;51.88
70826;SHT31;58446;41.490;22.098;2023-06-14T13:12:10;27.49;52.28
70826;SHT31;58446;41.490;22.098;2023-06-14T13:14:40;27.54;51.98
70826;SHT31;58446;41.490;22.098;2023-06-14T13:17:08;27.53;52.31
70826;SHT31;58446;41.490;22.098;2023-06-14T13:19:35;27.66;53.12
70826;SHT31;58446;41.490;22.098;2023-06-14T13:22:00;27.73;53.11
70826;SHT31;58446;41.490;22.098;2023-06-14T13:24:26;27.77;52.20
70826;SHT31;58446;41.490;22.098;2023-06-14T13:26:53;27.86;53.52
70826;SHT31;58446;41.490;22.098;2023-06-14T13:29:19;27.97;52.17
70826;SHT31;58446;41.490;22.098;2023-06-14T13:31:45;27.94;51.91
70826;SHT31;58446;41.490;22.098;2023-06-14T13:34:11;27.98;52.13
70826;SHT31;58446;41.490;22.098;2023-06-14T13:36:36;28.04;52.62
70826;SHT31;58446;41.490;22.098;2023-06-14T13:39:02;28.01;50.62
70826;SHT31;58446;41.490;22.098;2023-06-14T13:41:28;27.94;52.42
70826;SHT31;58446;41.490;22.098;2023-06-14T13:44:00;27.97;53.69
70826;SHT31;58446;41.490;22.098;2023-06-14T13:46:26;27.97;53.71
70826;SHT31;58446;41.490;22.098;2023-06-14T13:48:52;27.86;53.09
70826;SHT31;58446;41.490;22.098;2023-06-14T13:51:18;27.91;53.84
70826;SHT31;58446;41.490;22.098;2023-06-14T13:53:50;27.93;54.11
70826;SHT31;58446;41.490;22.098;2023-06-14T13:56:18;28.04;54.12
70826;SHT31;58446;41.490;22.098;2023-06-14T13:58:46;28.05;53.15
70826;SHT31;58446;41.490;22.098;2023-06-14T14:01:11;28.05;53.84
70826;SHT31;58446;41.490;22.098;2023-06-14T14:03:37;28.07;54.10
70826;SHT31;58446;41.490;22.098;2023-06-14T14:06:04;28.05;54.14
70826;SHT31;58446;41.490;22.098;2023-06-14T14:08:31;28.08;52.80
70826;SHT31;58446;41.490;22.098;2023-06-14T14:10:57;28.12;52.52
70826;SHT31;58446;41.490;22.098;2023-06-14T14:13:22;28.11;52.88
70826;SHT31;58446;41.490;22.098;2023-06-14T14:15:48;28.05;52.16
70826;SHT31;58446;41.490;22.098;2023-06-14T14:18:17;28.09;52.24
70826;SHT31;58446;41.490;22.098;2023-06-14T14:20:43;28.15;52.70
70826;SHT31;58446;41.490;22.098;2023-06-14T14:23:09;28.11;52.96
70826;SHT31;58446;41.490;22.098;2023-06-14T14:25:35;28.05;51.93
70826;SHT31;58446;41.490;22.098;2023-06-14T14:28:01;28.00;52.83
70826;SHT31;58446;41.490;22.098;2023-06-14T14:30:26;27.98;53.09
70826;SHT31;58446;41.490;22.098;2023-06-14T14:32:53;27.76;53.46
70826;SHT31;58446;41.490;22.098;2023-06-14T14:35:19;27.60;54.08
70826;SHT31;58446;41.490;22.098;2023-06-14T14:37:44;27.46;54.63
70826;SHT31;58446;41.490;22.098;2023-06-14T14:40:11;27.30;53.08
70826;SHT31;58446;41.490;22.098;2023-06-14T14:42:37;27.23;52.84
70826;SHT31;58446;41.490;22.098;2023-06-14T14:45:03;27.22;53.69
70826;SHT31;58446;41.490;22.098;2023-06-14T14:47:29;27.20;54.07
70826;SHT31;58446;41.490;22.098;2023-06-14T14:49:55;27.15;54.16
70826;SHT31;58446;41.490;22.098;2023-06-14T14:52:20;27.13;54.69
70826;SHT31;58446;41.490;22.098;2023-06-14T14:54:46;27.06;54.95
70826;SHT31;58446;41.490;22.098;2023-06-14T14:57:12;27.00;55.31
70826;SHT31;58446;41.490;22.098;2023-06-14T14:59:38;27.00;55.69
70826;SHT31;58446;41.490;22.098;2023-06-14T15:02:04;26.98;55.77
70826;SHT31;58446;41.490;22.098;2023-06-14T15:04:30;26.89;55.44
70826;SHT31;58446;41.490;22.098;2023-06-14T15:06:57;26.77;55.62
70826;SHT31;58446;41.490;22.098;2023-06-14T15:09:22;26.69;55.88
70826;SHT31;58446;41.490;22.098;2023-06-14T15:11:48;26.62;56.38
70826;SHT31;58446;41.490;22.098;2023-06-14T15:14:14;26.62;56.38
70826;SHT31;58446;41.490;22.098;2023-06-14T15:16:40;26.54;56.54
70826;SHT31;58446;41.490;22.098;2023-06-14T15:19:06;26.51;56.87
70826;SHT31;58446;41.490;22.098;2023-06-14T15:21:32;26.47;56.99
70826;SHT31;58446;41.490;22.098;2023-06-14T15:23:57;26.44;57.00